PWSweather.com
Personal Weather Stations
Station Observations
KCOGRAND2
Redlands, Southcamp Road & Dakota Circle, Grand Junction, CO 81507

Redlands, Southcamp Road & Dakota CircleGrand Junction, CO 81507

Lat: 39.055, Lon: -108.637

Elevation: 4870

Station Type: RadioShack WX200

High Low Average
Temperature 82.9°F28.3°C 53.8°F12.1°C 67.8°F19.9°C
Dew Point 28.9°F-1.7°C 7.2°F-13.8°C 22.2°F-5.4°C
Winds 16.0 mph 25.7 kmh Calm Calm 5.0 mph SSE8.0 kmh SSE
Wind Gusts 25.3 mph40.7 kmh -- 9.0 mph14.5 kmh
Humidity 37% 11% 25%
Pressure 25.10 in850.0 mb 24.98 in845.9 mb -
Precipitation 0.00 in0.0 mm - -
Hour Temp Dew Point Humidity Winds Wind Gusts Pressure Precip Precip Rate Daily Precip Total
12:04 AM 64.6°F18.1°C 16.0°F-8.9°C 15% 4.0 mph NNE6.4 kmh NNE 7.4 mph11.9 kmh 25.07 in849.0 mb 0.00 in0.0 mm 0.00 in0.0 mm 0.00 in0.0 mm
12:09 AM 65.7°F18.7°C 16.7°F-8.5°C 15% 6.0 mph N9.7 kmh N 8.7 mph14.0 kmh 25.07 in849.0 mb 0.00 in0.0 mm 0.00 in0.0 mm 0.00 in0.0 mm
12:14 AM 64.8°F18.2°C 16.0°F-8.9°C 15% 6.0 mph N9.7 kmh N 7.8 mph12.6 kmh 25.07 in849.0 mb 0.00 in0.0 mm 0.00 in0.0 mm 0.00 in0.0 mm
12:19 AM 64.0°F17.8°C 15.4°F-9.2°C 15% 5.0 mph NNE8.0 kmh NNE 8.3 mph13.4 kmh 25.07 in849.0 mb 0.00 in0.0 mm 0.00 in0.0 mm 0.00 in0.0 mm
12:24 AM 64.4°F18.0°C 15.8°F-9.0°C 15% 4.0 mph NE6.4 kmh NE 8.7 mph14.0 kmh 25.07 in849.0 mb 0.00 in0.0 mm 0.00 in0.0 mm 0.00 in0.0 mm
12:29 AM 63.9°F17.7°C 15.3°F-9.3°C 15% 4.0 mph NNE6.4 kmh NNE 6.3 mph10.1 kmh 25.07 in849.0 mb 0.00 in0.0 mm 0.00 in0.0 mm 0.00 in0.0 mm
12:34 AM 62.8°F17.1°C 16.0°F-8.9°C 16% 5.0 mph NNE8.0 kmh NNE 7.8 mph12.6 kmh 25.07 in849.0 mb 0.00 in0.0 mm 0.00 in0.0 mm 0.00 in0.0 mm
12:39 AM 64.4°F18.0°C 15.8°F-9.0°C 15% 6.0 mph NNE9.7 kmh NNE 9.2 mph14.8 kmh 25.07 in849.0 mb 0.00 in0.0 mm 0.00 in0.0 mm 0.00 in0.0 mm
12:44 AM 63.5°F17.5°C 16.5°F-8.6°C 16% 6.0 mph NNE9.7 kmh NNE 8.7 mph14.0 kmh 25.07 in849.0 mb 0.00 in0.0 mm 0.00 in0.0 mm 0.00 in0.0 mm
12:49 AM 63.9°F17.7°C 15.3°F-9.3°C 15% 5.0 mph NNE8.0 kmh NNE 7.8 mph12.6 kmh 25.07 in849.0 mb 0.00 in0.0 mm 0.00 in0.0 mm 0.00 in0.0 mm
12:54 AM 62.8°F17.1°C 16.0°F-8.9°C 16% 4.0 mph NNE6.4 kmh NNE 7.8 mph12.6 kmh 25.07 in849.0 mb 0.00 in0.0 mm 0.00 in0.0 mm 0.00 in0.0 mm
12:59 AM 62.2°F16.8°C 18.1°F-7.7°C 18% 5.0 mph NNE8.0 kmh NNE 8.3 mph13.4 kmh 25.07 in849.0 mb 0.00 in0.0 mm 0.00 in0.0 mm 0.00 in0.0 mm
01:04 AM 63.3°F17.4°C 19.0°F-7.2°C 18% 6.0 mph N9.7 kmh N 9.6 mph15.4 kmh 25.07 in849.0 mb 0.00 in0.0 mm 0.00 in0.0 mm 0.00 in0.0 mm
01:09 AM 64.2°F17.9°C 15.6°F-9.1°C 15% 6.0 mph N9.7 kmh N 9.2 mph14.8 kmh 25.07 in849.0 mb 0.00 in0.0 mm 0.00 in0.0 mm 0.00 in0.0 mm
01:14 AM 63.0°F17.2°C 16.2°F-8.8°C 16% 5.0 mph NNE8.0 kmh NNE 7.8 mph12.6 kmh 25.07 in849.0 mb 0.00 in0.0 mm 0.00 in0.0 mm 0.00 in0.0 mm
01:19 AM 62.8°F17.1°C 18.7°F-7.4°C 18% 5.0 mph NNE8.0 kmh NNE 9.6 mph15.4 kmh 25.07 in849.0 mb 0.00 in0.0 mm 0.00 in0.0 mm 0.00 in0.0 mm
01:24 AM 63.1°F17.3°C 16.2°F-8.8°C 16% 7.0 mph N11.3 kmh N 10.5 mph16.9 kmh 25.07 in849.0 mb 0.00 in0.0 mm 0.00 in0.0 mm 0.00 in0.0 mm
01:29 AM 62.8°F17.1°C 18.7°F-7.4°C 18% 6.0 mph NNE9.7 kmh NNE 7.8 mph12.6 kmh 25.04 in848.0 mb 0.00 in0.0 mm 0.00 in0.0 mm 0.00 in0.0 mm
01:34 AM 61.7°F16.5°C 19.0°F-7.2°C 19% 5.0 mph NNE8.0 kmh NNE 7.4 mph11.9 kmh 25.04 in848.0 mb 0.00 in0.0 mm 0.00 in0.0 mm 0.00 in0.0 mm
01:39 AM 62.8°F17.1°C 18.7°F-7.4°C 18% 6.0 mph N9.7 kmh N 7.8 mph12.6 kmh 25.04 in848.0 mb 0.00 in0.0 mm 0.00 in0.0 mm 0.00 in0.0 mm
01:44 AM 62.6°F17.0°C 18.5°F-7.5°C 18% 5.0 mph N8.0 kmh N 6.7 mph10.8 kmh 25.07 in849.0 mb 0.00 in0.0 mm 0.00 in0.0 mm 0.00 in0.0 mm
01:49 AM 61.7°F16.5°C 17.8°F-7.9°C 18% 2.0 mph N3.2 kmh N 4.0 mph6.4 kmh 25.07 in849.0 mb 0.00 in0.0 mm 0.00 in0.0 mm 0.00 in0.0 mm
01:54 AM 61.3°F16.3°C 18.7°F-7.4°C 19% 2.0 mph N3.2 kmh N 4.9 mph7.9 kmh 25.07 in849.0 mb 0.00 in0.0 mm 0.00 in0.0 mm 0.00 in0.0 mm
01:59 AM 60.8°F16.0°C 20.7°F-6.3°C 21% 4.0 mph N6.4 kmh N 5.8 mph9.3 kmh 25.04 in848.0 mb 0.00 in0.0 mm 0.00 in0.0 mm 0.00 in0.0 mm
02:04 AM 59.9°F15.5°C 23.0°F-5.0°C 24% 5.0 mph WNW8.0 kmh WNW 7.4 mph11.9 kmh 25.04 in848.0 mb 0.00 in0.0 mm 0.00 in0.0 mm 0.00 in0.0 mm
02:09 AM 61.0°F16.1°C 23.9°F-4.5°C 24% 5.0 mph W8.0 kmh W 6.9 mph11.1 kmh 25.04 in848.0 mb 0.00 in0.0 mm 0.00 in0.0 mm 0.00 in0.0 mm
02:14 AM 60.8°F16.0°C 23.7°F-4.6°C 24% 4.0 mph WNW6.4 kmh WNW 6.3 mph10.1 kmh 25.07 in849.0 mb 0.00 in0.0 mm 0.00 in0.0 mm 0.00 in0.0 mm
02:19 AM 59.9°F15.5°C 23.0°F-5.0°C 24% 3.0 mph NW4.8 kmh NW 4.5 mph7.2 kmh 25.07 in849.0 mb 0.00 in0.0 mm 0.00 in0.0 mm 0.00 in0.0 mm
02:24 AM 58.6°F14.8°C 23.0°F-5.0°C 25% 2.0 mph NW3.2 kmh NW 3.6 mph5.8 kmh 25.07 in849.0 mb 0.00 in0.0 mm 0.00 in0.0 mm 0.00 in0.0 mm
02:29 AM 58.5°F14.7°C 23.7°F-4.6°C 26% 1.0 mph NW1.6 kmh NW 3.6 mph5.8 kmh 25.07 in849.0 mb 0.00 in0.0 mm 0.00 in0.0 mm 0.00 in0.0 mm
02:34 AM 57.4°F14.1°C 23.7°F-4.6°C 27% 1.0 mph NW1.6 kmh NW 3.1 mph5.0 kmh 25.07 in849.0 mb 0.00 in0.0 mm 0.00 in0.0 mm 0.00 in0.0 mm
02:39 AM 57.7°F14.3°C 25.7°F-3.5°C 29% 1.0 mph NW1.6 kmh NW 4.0 mph6.4 kmh 25.07 in849.0 mb 0.00 in0.0 mm 0.00 in0.0 mm 0.00 in0.0 mm
02:44 AM 56.7°F13.7°C 25.5°F-3.6°C 30% 3.0 mph NW4.8 kmh NW 5.4 mph8.7 kmh 25.07 in849.0 mb 0.00 in0.0 mm 0.00 in0.0 mm 0.00 in0.0 mm
02:49 AM 57.0°F13.9°C 26.6°F-3.0°C 31% 3.0 mph NNW4.8 kmh NNW 4.5 mph7.2 kmh 25.07 in849.0 mb 0.00 in0.0 mm 0.00 in0.0 mm 0.00 in0.0 mm
02:54 AM 55.8°F13.2°C 27.9°F-2.3°C 34% 2.0 mph NNW3.2 kmh NNW 4.9 mph7.9 kmh 25.07 in849.0 mb 0.00 in0.0 mm 0.00 in0.0 mm 0.00 in0.0 mm
02:59 AM 54.5°F12.5°C 27.5°F-2.5°C 35% 3.0 mph NNE4.8 kmh NNE 5.4 mph8.7 kmh 25.04 in848.0 mb 0.00 in0.0 mm 0.00 in0.0 mm 0.00 in0.0 mm
03:04 AM 54.3°F12.4°C 28.6°F-1.9°C 37% 3.0 mph NE4.8 kmh NE 5.4 mph8.7 kmh 25.04 in848.0 mb 0.00 in0.0 mm 0.00 in0.0 mm 0.00 in0.0 mm
03:09 AM 54.7°F12.6°C 28.9°F-1.7°C 37% 4.0 mph NNE6.4 kmh NNE 6.7 mph10.8 kmh 25.04 in848.0 mb 0.00 in0.0 mm 0.00 in0.0 mm 0.00 in0.0 mm
03:14 AM 54.9°F12.7°C 28.4°F-2.0°C 36% 4.0 mph N6.4 kmh N 6.3 mph10.1 kmh 25.07 in849.0 mb 0.00 in0.0 mm 0.00 in0.0 mm 0.00 in0.0 mm
03:19 AM 54.7°F12.6°C 28.2°F-2.1°C 36% 4.0 mph NE6.4 kmh NE 5.8 mph9.3 kmh 25.07 in849.0 mb 0.00 in0.0 mm 0.00 in0.0 mm 0.00 in0.0 mm
03:24 AM 54.5°F12.5°C 28.8°F-1.8°C 37% 3.0 mph NE4.8 kmh NE 6.7 mph10.8 kmh 25.07 in849.0 mb 0.00 in0.0 mm 0.00 in0.0 mm 0.00 in0.0 mm
03:29 AM 54.3°F12.4°C 28.6°F-1.9°C 37% 3.0 mph NNE4.8 kmh NNE 5.4 mph8.7 kmh 25.04 in848.0 mb 0.00 in0.0 mm 0.00 in0.0 mm 0.00 in0.0 mm
03:34 AM 54.7°F12.6°C 28.2°F-2.1°C 36% 4.0 mph NNE6.4 kmh NNE 5.4 mph8.7 kmh 25.04 in848.0 mb 0.00 in0.0 mm 0.00 in0.0 mm 0.00 in0.0 mm
03:39 AM 54.9°F12.7°C 28.4°F-2.0°C 36% 4.0 mph NNE6.4 kmh NNE 5.8 mph9.3 kmh 25.04 in848.0 mb 0.00 in0.0 mm 0.00 in0.0 mm 0.00 in0.0 mm
03:44 AM 55.9°F13.3°C 28.8°F-1.8°C 35% 4.0 mph NNE6.4 kmh NNE 5.4 mph8.7 kmh 25.07 in849.0 mb 0.00 in0.0 mm 0.00 in0.0 mm 0.00 in0.0 mm
03:49 AM 54.9°F12.7°C 27.7°F-2.4°C 35% 4.0 mph NNE6.4 kmh NNE 4.9 mph7.9 kmh 25.07 in849.0 mb 0.00 in0.0 mm 0.00 in0.0 mm 0.00 in0.0 mm
03:54 AM 56.8°F13.8°C 28.0°F-2.2°C 33% 4.0 mph NNE6.4 kmh NNE 6.3 mph10.1 kmh 25.07 in849.0 mb 0.00 in0.0 mm 0.00 in0.0 mm 0.00 in0.0 mm
03:59 AM 57.9°F14.4°C 26.6°F-3.0°C 30% 5.0 mph N8.0 kmh N 6.7 mph10.8 kmh 25.07 in849.0 mb 0.00 in0.0 mm 0.00 in0.0 mm 0.00 in0.0 mm
04:04 AM 58.3°F14.6°C 25.3°F-3.7°C 28% 5.0 mph 8.0 kmh 8.7 mph14.0 kmh 25.07 in849.0 mb 0.00 in0.0 mm 0.00 in0.0 mm 0.00 in0.0 mm
04:10 AM 57.4°F14.1°C 24.6°F-4.1°C 28% 4.0 mph N6.4 kmh N 7.4 mph11.9 kmh 25.07 in849.0 mb 0.00 in0.0 mm 0.00 in0.0 mm 0.00 in0.0 mm
04:15 AM 56.8°F13.8°C 24.1°F-4.4°C 28% 4.0 mph NNE6.4 kmh NNE 7.4 mph11.9 kmh 25.07 in849.0 mb 0.00 in0.0 mm 0.00 in0.0 mm 0.00 in0.0 mm
04:20 AM 56.5°F13.6°C 24.6°F-4.1°C 29% 4.0 mph NNE6.4 kmh NNE 5.4 mph8.7 kmh 25.07 in849.0 mb 0.00 in0.0 mm 0.00 in0.0 mm 0.00 in0.0 mm
04:25 AM 56.5°F13.6°C 24.6°F-4.1°C 29% 4.0 mph NNE6.4 kmh NNE 4.9 mph7.9 kmh 25.07 in849.0 mb 0.00 in0.0 mm 0.00 in0.0 mm 0.00 in0.0 mm
04:30 AM 57.4°F14.1°C 25.3°F-3.7°C 29% 4.0 mph N6.4 kmh N 5.4 mph8.7 kmh 25.07 in849.0 mb 0.00 in0.0 mm 0.00 in0.0 mm 0.00 in0.0 mm
04:35 AM 56.8°F13.8°C 24.1°F-4.4°C 28% 3.0 mph NNE4.8 kmh NNE 5.4 mph8.7 kmh 25.07 in849.0 mb 0.00 in0.0 mm 0.00 in0.0 mm 0.00 in0.0 mm
04:40 AM 56.8°F13.8°C 25.0°F-3.9°C 29% 3.0 mph NE4.8 kmh NE 4.5 mph7.2 kmh 25.07 in849.0 mb 0.00 in0.0 mm 0.00 in0.0 mm 0.00 in0.0 mm
04:45 AM 57.4°F14.1°C 24.6°F-4.1°C 28% 4.0 mph NE6.4 kmh NE 6.3 mph10.1 kmh 25.07 in849.0 mb 0.00 in0.0 mm 0.00 in0.0 mm 0.00 in0.0 mm
04:50 AM 57.6°F14.2°C 25.5°F-3.6°C 29% 4.0 mph NE6.4 kmh NE 7.8 mph12.6 kmh 25.07 in849.0 mb 0.00 in0.0 mm 0.00 in0.0 mm 0.00 in0.0 mm
04:55 AM 56.7°F13.7°C 24.8°F-4.0°C 29% 4.0 mph NE6.4 kmh NE 6.3 mph10.1 kmh 25.07 in849.0 mb 0.00 in0.0 mm 0.00 in0.0 mm 0.00 in0.0 mm
05:00 AM 56.7°F13.7°C 24.8°F-4.0°C 29% 4.0 mph NE6.4 kmh NE 5.8 mph9.3 kmh 25.07 in849.0 mb 0.00 in0.0 mm 0.00 in0.0 mm 0.00 in0.0 mm
05:05 AM 56.5°F13.6°C 24.6°F-4.1°C 29% 4.0 mph NNE6.4 kmh NNE 6.3 mph10.1 kmh 25.07 in849.0 mb 0.00 in0.0 mm 0.00 in0.0 mm 0.00 in0.0 mm
05:10 AM 55.2°F12.9°C 24.3°F-4.3°C 30% 3.0 mph NNE4.8 kmh NNE 4.5 mph7.2 kmh 25.07 in849.0 mb 0.00 in0.0 mm 0.00 in0.0 mm 0.00 in0.0 mm
05:15 AM 55.6°F13.1°C 25.5°F-3.6°C 31% 2.0 mph NNE3.2 kmh NNE 3.6 mph5.8 kmh 25.07 in849.0 mb 0.00 in0.0 mm 0.00 in0.0 mm 0.00 in0.0 mm
05:20 AM 55.9°F13.3°C 25.7°F-3.5°C 31% 2.0 mph NNE3.2 kmh NNE 4.5 mph7.2 kmh 25.07 in849.0 mb 0.00 in0.0 mm 0.00 in0.0 mm 0.00 in0.0 mm
05:25 AM 54.7°F12.6°C 25.3°F-3.7°C 32% 3.0 mph NNE4.8 kmh NNE 5.4 mph8.7 kmh 25.07 in849.0 mb 0.00 in0.0 mm 0.00 in0.0 mm 0.00 in0.0 mm
05:30 AM 55.2°F12.9°C 26.6°F-3.0°C 33% 4.0 mph NNE6.4 kmh NNE 6.7 mph10.8 kmh 25.07 in849.0 mb 0.00 in0.0 mm 0.00 in0.0 mm 0.00 in0.0 mm
05:35 AM 54.5°F12.5°C 26.8°F-2.9°C 34% 4.0 mph NNE6.4 kmh NNE 6.3 mph10.1 kmh 25.07 in849.0 mb 0.00 in0.0 mm 0.00 in0.0 mm 0.00 in0.0 mm
05:40 AM 53.8°F12.1°C 26.8°F-2.9°C 35% 4.0 mph NE6.4 kmh NE 5.8 mph9.3 kmh 25.07 in849.0 mb 0.00 in0.0 mm 0.00 in0.0 mm 0.00 in0.0 mm
05:45 AM 54.0°F12.2°C 27.0°F-2.8°C 35% 4.0 mph NE6.4 kmh NE 6.7 mph10.8 kmh 25.07 in849.0 mb 0.00 in0.0 mm 0.00 in0.0 mm 0.00 in0.0 mm
05:50 AM 54.9°F12.7°C 27.7°F-2.4°C 35% 5.0 mph NNE8.0 kmh NNE 7.4 mph11.9 kmh 25.07 in849.0 mb 0.00 in0.0 mm 0.00 in0.0 mm 0.00 in0.0 mm
05:55 AM 54.7°F12.6°C 27.0°F-2.8°C 34% 5.0 mph NNE8.0 kmh NNE 6.7 mph10.8 kmh 25.07 in849.0 mb 0.00 in0.0 mm 0.00 in0.0 mm 0.00 in0.0 mm
06:00 AM 56.3°F13.5°C 27.5°F-2.5°C 33% 5.0 mph N8.0 kmh N 6.7 mph10.8 kmh 25.07 in849.0 mb 0.00 in0.0 mm 0.00 in0.0 mm 0.00 in0.0 mm
06:05 AM 56.3°F13.5°C 26.1°F-3.3°C 31% 6.0 mph N9.7 kmh N 8.7 mph14.0 kmh 25.07 in849.0 mb 0.00 in0.0 mm 0.00 in0.0 mm 0.00 in0.0 mm
06:10 AM 57.0°F13.9°C 25.2°F-3.8°C 29% 7.0 mph N11.3 kmh N 10.1 mph16.3 kmh 25.07 in849.0 mb 0.00 in0.0 mm 0.00 in0.0 mm 0.00 in0.0 mm
06:15 AM 57.6°F14.2°C 25.5°F-3.6°C 29% 7.0 mph NNE11.3 kmh NNE 10.5 mph16.9 kmh 25.07 in849.0 mb 0.00 in0.0 mm 0.00 in0.0 mm 0.00 in0.0 mm
06:20 AM 58.1°F14.5°C 25.2°F-3.8°C 28% 7.0 mph NNE11.3 kmh NNE 11.2 mph18.0 kmh 25.07 in849.0 mb 0.00 in0.0 mm 0.00 in0.0 mm 0.00 in0.0 mm
06:25 AM 57.2°F14.0°C 25.2°F-3.8°C 29% 6.0 mph NNE9.7 kmh NNE 6.9 mph11.1 kmh 25.07 in849.0 mb 0.00 in0.0 mm 0.00 in0.0 mm 0.00 in0.0 mm
06:30 AM 56.8°F13.8°C 25.0°F-3.9°C 29% 5.0 mph NNE8.0 kmh NNE 7.4 mph11.9 kmh 25.07 in849.0 mb 0.00 in0.0 mm 0.00 in0.0 mm 0.00 in0.0 mm
06:35 AM 56.8°F13.8°C 25.0°F-3.9°C 29% 4.0 mph NNE6.4 kmh NNE 5.8 mph9.3 kmh 25.07 in849.0 mb 0.00 in0.0 mm 0.00 in0.0 mm 0.00 in0.0 mm
06:40 AM 57.2°F14.0°C 25.2°F-3.8°C 29% 4.0 mph NNE6.4 kmh NNE 5.8 mph9.3 kmh 25.07 in849.0 mb 0.00 in0.0 mm 0.00 in0.0 mm 0.00 in0.0 mm
06:45 AM 57.9°F14.4°C 25.0°F-3.9°C 28% 4.0 mph N6.4 kmh N 6.9 mph11.1 kmh 25.07 in849.0 mb 0.00 in0.0 mm 0.00 in0.0 mm 0.00 in0.0 mm
06:50 AM 58.1°F14.5°C 24.3°F-4.3°C 27% 5.0 mph N8.0 kmh N 7.8 mph12.6 kmh 25.07 in849.0 mb 0.00 in0.0 mm 0.00 in0.0 mm 0.00 in0.0 mm
06:55 AM 58.5°F14.7°C 23.7°F-4.6°C 26% 5.0 mph N8.0 kmh N 6.3 mph10.1 kmh 25.07 in849.0 mb 0.00 in0.0 mm 0.00 in0.0 mm 0.00 in0.0 mm
07:00 AM 58.6°F14.8°C 23.9°F-4.5°C 26% 4.0 mph NNW6.4 kmh NNW 6.7 mph10.8 kmh 25.07 in849.0 mb 0.00 in0.0 mm 0.00 in0.0 mm 0.00 in0.0 mm
07:05 AM 58.6°F14.8°C 23.9°F-4.5°C 26% 4.0 mph NW6.4 kmh NW 6.9 mph11.1 kmh 25.07 in849.0 mb 0.00 in0.0 mm 0.00 in0.0 mm 0.00 in0.0 mm
07:10 AM 58.5°F14.7°C 23.7°F-4.6°C 26% 4.0 mph NW6.4 kmh NW 6.3 mph10.1 kmh 25.07 in849.0 mb 0.00 in0.0 mm 0.00 in0.0 mm 0.00 in0.0 mm
07:15 AM 58.5°F14.7°C 23.7°F-4.6°C 26% 5.0 mph NW8.0 kmh NW 6.9 mph11.1 kmh 25.07 in849.0 mb 0.00 in0.0 mm 0.00 in0.0 mm 0.00 in0.0 mm
07:20 AM 58.8°F14.9°C 24.1°F-4.4°C 26% 4.0 mph NW6.4 kmh NW 6.9 mph11.1 kmh 25.07 in849.0 mb 0.00 in0.0 mm 0.00 in0.0 mm 0.00 in0.0 mm
07:25 AM 59.4°F15.2°C 24.4°F-4.2°C 26% 3.0 mph NNW4.8 kmh NNW 6.7 mph10.8 kmh 25.07 in849.0 mb 0.00 in0.0 mm 0.00 in0.0 mm 0.00 in0.0 mm
07:30 AM 59.7°F15.4°C 23.9°F-4.5°C 25% 3.0 mph N4.8 kmh N 7.4 mph11.9 kmh 25.07 in849.0 mb 0.00 in0.0 mm 0.00 in0.0 mm 0.00 in0.0 mm
07:35 AM 59.9°F15.5°C 24.1°F-4.4°C 25% 4.0 mph N6.4 kmh N 6.7 mph10.8 kmh 25.07 in849.0 mb 0.00 in0.0 mm 0.00 in0.0 mm 0.00 in0.0 mm
07:40 AM 60.4°F15.8°C 24.4°F-4.2°C 25% 4.0 mph NNW6.4 kmh NNW 7.8 mph12.6 kmh 25.07 in849.0 mb 0.00 in0.0 mm 0.00 in0.0 mm 0.00 in0.0 mm
07:45 AM 58.8°F14.9°C 23.0°F-5.0°C 25% 4.0 mph N6.4 kmh N 7.8 mph12.6 kmh 25.10 in850.0 mb 0.00 in0.0 mm 0.00 in0.0 mm 0.00 in0.0 mm
07:50 AM 58.8°F14.9°C 24.1°F-4.4°C 26% 4.0 mph N6.4 kmh N 6.7 mph10.8 kmh 25.10 in850.0 mb 0.00 in0.0 mm 0.00 in0.0 mm 0.00 in0.0 mm
07:55 AM 59.0°F15.0°C 24.1°F-4.4°C 26% 4.0 mph N6.4 kmh N 6.7 mph10.8 kmh 25.10 in850.0 mb 0.00 in0.0 mm 0.00 in0.0 mm 0.00 in0.0 mm
08:00 AM 59.5°F15.3°C 24.6°F-4.1°C 26% 3.0 mph N4.8 kmh N 4.9 mph7.9 kmh 25.10 in850.0 mb 0.00 in0.0 mm 0.00 in0.0 mm 0.00 in0.0 mm
08:05 AM 60.3°F15.7°C 24.3°F-4.3°C 25% 3.0 mph NNE4.8 kmh NNE 6.3 mph10.1 kmh 25.10 in850.0 mb 0.00 in0.0 mm 0.00 in0.0 mm 0.00 in0.0 mm
08:10 AM 60.1°F15.6°C 24.1°F-4.4°C 25% 3.0 mph NNE4.8 kmh NNE 5.8 mph9.3 kmh 25.10 in850.0 mb 0.00 in0.0 mm 0.00 in0.0 mm 0.00 in0.0 mm
08:15 AM 59.7°F15.4°C 23.9°F-4.5°C 25% 4.0 mph NNE6.4 kmh NNE 6.9 mph11.1 kmh 25.10 in850.0 mb 0.00 in0.0 mm 0.00 in0.0 mm 0.00 in0.0 mm
08:20 AM 61.0°F16.1°C 25.0°F-3.9°C 25% 4.0 mph NNE6.4 kmh NNE 7.4 mph11.9 kmh 25.10 in850.0 mb 0.00 in0.0 mm 0.00 in0.0 mm 0.00 in0.0 mm
08:25 AM 61.5°F16.4°C 24.4°F-4.2°C 24% 4.0 mph NNE6.4 kmh NNE 7.4 mph11.9 kmh 25.10 in850.0 mb 0.00 in0.0 mm 0.00 in0.0 mm 0.00 in0.0 mm
08:30 AM 62.1°F16.7°C 24.8°F-4.0°C 24% 4.0 mph N6.4 kmh N 6.7 mph10.8 kmh 25.10 in850.0 mb 0.00 in0.0 mm 0.00 in0.0 mm 0.00 in0.0 mm
08:35 AM 61.2°F16.2°C 24.1°F-4.4°C 24% 5.0 mph 8.0 kmh 9.2 mph14.8 kmh 25.10 in850.0 mb 0.00 in0.0 mm 0.00 in0.0 mm 0.00 in0.0 mm
08:40 AM 61.7°F16.5°C 24.6°F-4.1°C 24% 6.0 mph N9.7 kmh N 9.6 mph15.4 kmh 25.10 in850.0 mb 0.00 in0.0 mm 0.00 in0.0 mm 0.00 in0.0 mm
08:45 AM 61.9°F16.6°C 24.6°F-4.1°C 24% 7.0 mph N11.3 kmh N 10.1 mph16.3 kmh 25.10 in850.0 mb 0.00 in0.0 mm 0.00 in0.0 mm 0.00 in0.0 mm
08:50 AM 62.6°F17.0°C 25.3°F-3.7°C 24% 6.0 mph N9.7 kmh N 8.3 mph13.4 kmh 25.10 in850.0 mb 0.00 in0.0 mm 0.00 in0.0 mm 0.00 in0.0 mm
08:55 AM 63.1°F17.3°C 22.6°F-5.2°C 21% 6.0 mph N9.7 kmh N 9.2 mph14.8 kmh 25.10 in850.0 mb 0.00 in0.0 mm 0.00 in0.0 mm 0.00 in0.0 mm
09:00 AM 63.7°F17.6°C 21.9°F-5.6°C 20% 6.0 mph N9.7 kmh N 10.1 mph16.3 kmh 25.10 in850.0 mb 0.00 in0.0 mm 0.00 in0.0 mm 0.00 in0.0 mm
09:05 AM 64.4°F18.0°C 19.9°F-6.7°C 18% 6.0 mph N9.7 kmh N 8.7 mph14.0 kmh 25.10 in850.0 mb 0.00 in0.0 mm 0.00 in0.0 mm 0.00 in0.0 mm
09:10 AM 65.1°F18.4°C 20.5°F-6.4°C 18% 6.0 mph N9.7 kmh N 9.2 mph14.8 kmh 25.10 in850.0 mb 0.00 in0.0 mm 0.00 in0.0 mm 0.00 in0.0 mm
09:15 AM 65.1°F18.4°C 16.3°F-8.7°C 15% 6.0 mph N9.7 kmh N 9.2 mph14.8 kmh 25.10 in850.0 mb 0.00 in0.0 mm 0.00 in0.0 mm 0.00 in0.0 mm
09:20 AM 65.5°F18.6°C 16.7°F-8.5°C 15% 6.0 mph N9.7 kmh N 10.5 mph16.9 kmh 25.10 in850.0 mb 0.00 in0.0 mm 0.00 in0.0 mm 0.00 in0.0 mm
09:25 AM 65.8°F18.8°C 16.9°F-8.4°C 15% 6.0 mph N9.7 kmh N 10.1 mph16.3 kmh 25.10 in850.0 mb 0.00 in0.0 mm 0.00 in0.0 mm 0.00 in0.0 mm
09:30 AM 65.1°F18.4°C 13.1°F-10.5°C 13% 6.0 mph N9.7 kmh N 9.6 mph15.4 kmh 25.10 in850.0 mb 0.00 in0.0 mm 0.00 in0.0 mm 0.00 in0.0 mm
09:35 AM 65.7°F18.7°C 16.7°F-8.5°C 15% 6.0 mph NNW9.7 kmh NNW 10.1 mph16.3 kmh 25.10 in850.0 mb 0.00 in0.0 mm 0.00 in0.0 mm 0.00 in0.0 mm
09:40 AM 65.8°F18.8°C 16.9°F-8.4°C 15% 5.0 mph N8.0 kmh N 7.4 mph11.9 kmh 25.10 in850.0 mb 0.00 in0.0 mm 0.00 in0.0 mm 0.00 in0.0 mm
09:45 AM 66.4°F19.1°C 17.4°F-8.1°C 15% 5.0 mph N8.0 kmh N 7.8 mph12.6 kmh 25.10 in850.0 mb 0.00 in0.0 mm 0.00 in0.0 mm 0.00 in0.0 mm
09:50 AM 66.4°F19.1°C 12.2°F-11.0°C 12% 5.0 mph NNW8.0 kmh NNW 6.7 mph10.8 kmh 25.10 in850.0 mb 0.00 in0.0 mm 0.00 in0.0 mm 0.00 in0.0 mm
09:55 AM 67.3°F19.6°C 12.9°F-10.6°C 12% 3.0 mph NNW4.8 kmh NNW 6.3 mph10.1 kmh 25.10 in850.0 mb 0.00 in0.0 mm 0.00 in0.0 mm 0.00 in0.0 mm
10:00 AM 66.9°F19.4°C 12.7°F-10.7°C 12% 3.0 mph N4.8 kmh N 6.3 mph10.1 kmh 25.10 in850.0 mb 0.00 in0.0 mm 0.00 in0.0 mm 0.00 in0.0 mm
10:05 AM 67.1°F19.5°C 12.7°F-10.7°C 12% 4.0 mph NW6.4 kmh NW 7.8 mph12.6 kmh 25.10 in850.0 mb 0.00 in0.0 mm 0.00 in0.0 mm 0.00 in0.0 mm
10:10 AM 68.2°F20.1°C 13.6°F-10.2°C 12% 4.0 mph WSW6.4 kmh WSW 6.7 mph10.8 kmh 25.10 in850.0 mb 0.00 in0.0 mm 0.00 in0.0 mm 0.00 in0.0 mm
10:15 AM 67.5°F19.7°C 13.1°F-10.5°C 12% 4.0 mph WSW6.4 kmh WSW 7.4 mph11.9 kmh 25.07 in849.0 mb 0.00 in0.0 mm 0.00 in0.0 mm 0.00 in0.0 mm
10:20 AM 67.5°F19.7°C 13.1°F-10.5°C 12% 4.0 mph W6.4 kmh W 8.3 mph13.4 kmh 25.07 in849.0 mb 0.00 in0.0 mm 0.00 in0.0 mm 0.00 in0.0 mm
10:25 AM 68.0°F20.0°C 13.5°F-10.3°C 12% 4.0 mph W6.4 kmh W 7.4 mph11.9 kmh 25.07 in849.0 mb 0.00 in0.0 mm 0.00 in0.0 mm 0.00 in0.0 mm
10:30 AM 69.3°F20.7°C 14.5°F-9.7°C 12% 3.0 mph WNW4.8 kmh WNW 5.4 mph8.7 kmh 25.07 in849.0 mb 0.00 in0.0 mm 0.00 in0.0 mm 0.00 in0.0 mm
10:35 AM 69.4°F20.8°C 14.7°F-9.6°C 12% 3.0 mph W4.8 kmh W 6.7 mph10.8 kmh 25.07 in849.0 mb 0.00 in0.0 mm 0.00 in0.0 mm 0.00 in0.0 mm
10:40 AM 70.2°F21.2°C 15.3°F-9.3°C 12% 4.0 mph WSW6.4 kmh WSW 7.8 mph12.6 kmh 25.07 in849.0 mb 0.00 in0.0 mm 0.00 in0.0 mm 0.00 in0.0 mm
10:45 AM 70.5°F21.4°C -5537.2°C - 4.0 mph SSW6.4 kmh SSW 7.8 mph12.6 kmh 25.07 in849.0 mb 0.00 in0.0 mm 0.00 in0.0 mm 0.00 in0.0 mm
10:50 AM 70.5°F21.4°C -5537.2°C - 5.0 mph S8.0 kmh S 7.8 mph12.6 kmh 25.07 in849.0 mb 0.00 in0.0 mm 0.00 in0.0 mm 0.00 in0.0 mm
10:55 AM 70.9°F21.6°C -5537.2°C - 5.0 mph SSW8.0 kmh SSW 7.4 mph11.9 kmh 25.07 in849.0 mb 0.00 in0.0 mm 0.00 in0.0 mm 0.00 in0.0 mm
11:00 AM 71.2°F21.8°C -5537.2°C - 5.0 mph S8.0 kmh S 9.2 mph14.8 kmh 25.07 in849.0 mb 0.00 in0.0 mm 0.00 in0.0 mm 0.00 in0.0 mm
11:05 AM 70.9°F21.6°C -5537.2°C - 6.0 mph S9.7 kmh S 9.2 mph14.8 kmh 25.07 in849.0 mb 0.00 in0.0 mm 0.00 in0.0 mm 0.00 in0.0 mm
11:10 AM 70.3°F21.3°C -5537.2°C - 6.0 mph SSW9.7 kmh SSW 11.0 mph17.7 kmh 25.07 in849.0 mb 0.00 in0.0 mm 0.00 in0.0 mm 0.00 in0.0 mm
11:15 AM 71.1°F21.7°C -5537.2°C - 7.0 mph S11.3 kmh S 11.0 mph17.7 kmh 25.07 in849.0 mb 0.00 in0.0 mm 0.00 in0.0 mm 0.00 in0.0 mm
11:20 AM 71.2°F21.8°C -5537.2°C - 7.0 mph S11.3 kmh S 11.6 mph18.7 kmh 25.07 in849.0 mb 0.00 in0.0 mm 0.00 in0.0 mm 0.00 in0.0 mm
11:25 AM 71.4°F21.9°C -5537.2°C - 8.0 mph SSW12.9 kmh SSW 12.5 mph20.1 kmh 25.07 in849.0 mb 0.00 in0.0 mm 0.00 in0.0 mm 0.00 in0.0 mm
11:30 AM 72.0°F22.2°C -5537.2°C - 8.0 mph SSW12.9 kmh SSW 11.6 mph18.7 kmh 25.07 in849.0 mb 0.00 in0.0 mm 0.00 in0.0 mm 0.00 in0.0 mm
11:35 AM 72.3°F22.4°C -5537.2°C - 7.0 mph S11.3 kmh S 12.1 mph19.5 kmh 25.07 in849.0 mb 0.00 in0.0 mm 0.00 in0.0 mm 0.00 in0.0 mm
11:40 AM 72.7°F22.6°C -5537.2°C - 7.0 mph S11.3 kmh S 14.8 mph23.8 kmh 25.07 in849.0 mb 0.00 in0.0 mm 0.00 in0.0 mm 0.00 in0.0 mm
11:45 AM 73.4°F23.0°C -5537.2°C - 7.0 mph S11.3 kmh S 13.9 mph22.4 kmh 25.07 in849.0 mb 0.00 in0.0 mm 0.00 in0.0 mm 0.00 in0.0 mm
11:50 AM 73.0°F22.8°C -5537.2°C - 9.0 mph SSW14.5 kmh SSW 14.8 mph23.8 kmh 25.07 in849.0 mb 0.00 in0.0 mm 0.00 in0.0 mm 0.00 in0.0 mm
11:55 AM 73.6°F23.1°C -5537.2°C - 11.0 mph SSW17.7 kmh SSW 18.6 mph29.9 kmh 25.07 in849.0 mb 0.00 in0.0 mm 0.00 in0.0 mm 0.00 in0.0 mm
12:00 PM 73.6°F23.1°C -5537.2°C - 12.0 mph SSW19.3 kmh SSW 17.2 mph27.7 kmh 25.07 in849.0 mb 0.00 in0.0 mm 0.00 in0.0 mm 0.00 in0.0 mm
12:05 PM 73.6°F23.1°C -5537.2°C - 12.0 mph SSW19.3 kmh SSW 16.8 mph27.0 kmh 25.07 in849.0 mb 0.00 in0.0 mm 0.00 in0.0 mm 0.00 in0.0 mm
12:10 PM 74.1°F23.4°C -5537.2°C - 11.0 mph SSW17.7 kmh SSW 15.9 mph25.6 kmh 25.07 in849.0 mb 0.00 in0.0 mm 0.00 in0.0 mm 0.00 in0.0 mm
12:15 PM 74.7°F23.7°C -5537.2°C - 11.0 mph S17.7 kmh S 13.4 mph21.6 kmh 25.07 in849.0 mb 0.00 in0.0 mm 0.00 in0.0 mm 0.00 in0.0 mm
12:20 PM 73.9°F23.3°C -5537.2°C - 10.0 mph SSW16.1 kmh SSW 15.2 mph24.5 kmh 25.07 in849.0 mb 0.00 in0.0 mm 0.00 in0.0 mm 0.00 in0.0 mm
12:25 PM 74.8°F23.8°C -5537.2°C - 10.0 mph SSW16.1 kmh SSW 14.3 mph23.0 kmh 25.07 in849.0 mb 0.00 in0.0 mm 0.00 in0.0 mm 0.00 in0.0 mm
12:30 PM 74.5°F23.6°C -5537.2°C - 10.0 mph SSW16.1 kmh SSW 14.3 mph23.0 kmh 25.04 in848.0 mb 0.00 in0.0 mm 0.00 in0.0 mm 0.00 in0.0 mm
12:35 PM 75.7°F24.3°C -5537.2°C - 10.0 mph SSW16.1 kmh SSW 15.4 mph24.8 kmh 25.04 in848.0 mb 0.00 in0.0 mm 0.00 in0.0 mm 0.00 in0.0 mm
12:40 PM 75.6°F24.2°C -5537.2°C - 9.0 mph SSW14.5 kmh SSW 14.3 mph23.0 kmh 25.04 in848.0 mb 0.00 in0.0 mm 0.00 in0.0 mm 0.00 in0.0 mm
12:45 PM 75.7°F24.3°C -5537.2°C - 10.0 mph SW16.1 kmh SW 16.3 mph26.2 kmh 25.04 in848.0 mb 0.00 in0.0 mm 0.00 in0.0 mm 0.00 in0.0 mm
12:50 PM 76.5°F24.7°C -5537.2°C - 11.0 mph SSW17.7 kmh SSW 16.3 mph26.2 kmh 25.04 in848.0 mb 0.00 in0.0 mm 0.00 in0.0 mm 0.00 in0.0 mm
12:55 PM 77.2°F25.1°C -5537.2°C - 9.0 mph SW14.5 kmh SW 12.5 mph20.1 kmh 25.04 in848.0 mb 0.00 in0.0 mm 0.00 in0.0 mm 0.00 in0.0 mm
01:00 PM 77.4°F25.2°C -5537.2°C - 8.0 mph SW12.9 kmh SW 13.0 mph20.9 kmh 25.04 in848.0 mb 0.00 in0.0 mm 0.00 in0.0 mm 0.00 in0.0 mm
01:05 PM 77.7°F25.4°C -5537.2°C - 9.0 mph SW14.5 kmh SW 16.3 mph26.2 kmh 25.04 in848.0 mb 0.00 in0.0 mm 0.00 in0.0 mm 0.00 in0.0 mm
01:10 PM 78.8°F26.0°C -5537.2°C - 9.0 mph SSW14.5 kmh SSW 13.0 mph20.9 kmh 25.04 in848.0 mb 0.00 in0.0 mm 0.00 in0.0 mm 0.00 in0.0 mm
01:15 PM 77.5°F25.3°C -5537.2°C - 8.0 mph SSW12.9 kmh SSW 15.9 mph25.6 kmh 25.04 in848.0 mb 0.00 in0.0 mm 0.00 in0.0 mm 0.00 in0.0 mm
01:20 PM 79.0°F26.1°C -5537.2°C - 9.0 mph S14.5 kmh S 13.0 mph20.9 kmh 25.04 in848.0 mb 0.00 in0.0 mm 0.00 in0.0 mm 0.00 in0.0 mm
01:25 PM 77.7°F25.4°C -5537.2°C - 8.0 mph SSW12.9 kmh SSW 12.5 mph20.1 kmh 25.04 in848.0 mb 0.00 in0.0 mm 0.00 in0.0 mm 0.00 in0.0 mm
01:30 PM 78.3°F25.7°C -5537.2°C - 8.0 mph SW12.9 kmh SW 17.2 mph27.7 kmh 25.04 in848.0 mb 0.00 in0.0 mm 0.00 in0.0 mm 0.00 in0.0 mm
01:35 PM 78.4°F25.8°C -5537.2°C - 9.0 mph SSW14.5 kmh SSW 15.2 mph24.5 kmh 25.04 in848.0 mb 0.00 in0.0 mm 0.00 in0.0 mm 0.00 in0.0 mm
01:40 PM 79.3°F26.3°C -5537.2°C - 9.0 mph SSW14.5 kmh SSW 13.0 mph20.9 kmh 25.04 in848.0 mb 0.00 in0.0 mm 0.00 in0.0 mm 0.00 in0.0 mm
01:45 PM 78.8°F26.0°C -5537.2°C - 10.0 mph SSW16.1 kmh SSW 17.7 mph28.5 kmh 25.01 in846.9 mb 0.00 in0.0 mm 0.00 in0.0 mm 0.00 in0.0 mm
01:50 PM 79.3°F26.3°C -5537.2°C - 10.0 mph SSW16.1 kmh SSW 13.4 mph21.6 kmh 25.01 in846.9 mb 0.00 in0.0 mm 0.00 in0.0 mm 0.00 in0.0 mm
01:55 PM 78.4°F25.8°C -5537.2°C - 8.0 mph SW12.9 kmh SW 12.1 mph19.5 kmh 25.01 in846.9 mb 0.00 in0.0 mm 0.00 in0.0 mm 0.00 in0.0 mm
02:00 PM 78.8°F26.0°C -5537.2°C - 9.0 mph WSW14.5 kmh WSW 14.3 mph23.0 kmh 25.01 in846.9 mb 0.00 in0.0 mm 0.00 in0.0 mm 0.00 in0.0 mm
02:05 PM 80.1°F26.7°C -5537.2°C - 9.0 mph SW14.5 kmh SW 13.0 mph20.9 kmh 25.01 in846.9 mb 0.00 in0.0 mm 0.00 in0.0 mm 0.00 in0.0 mm
02:10 PM 79.7°F26.5°C -5537.2°C - 8.0 mph SW12.9 kmh SW 11.2 mph18.0 kmh 25.01 in846.9 mb 0.00 in0.0 mm 0.00 in0.0 mm 0.00 in0.0 mm
02:15 PM 81.1°F27.3°C -5537.2°C - 8.0 mph SW12.9 kmh SW 14.8 mph23.8 kmh 25.01 in846.9 mb 0.00 in0.0 mm 0.00 in0.0 mm 0.00 in0.0 mm
02:20 PM 80.4°F26.9°C -5537.2°C - 9.0 mph SSW14.5 kmh SSW 14.3 mph23.0 kmh 25.01 in846.9 mb 0.00 in0.0 mm 0.00 in0.0 mm 0.00 in0.0 mm
02:26 PM 79.5°F26.4°C -5537.2°C - 8.0 mph SW12.9 kmh SW 15.4 mph24.8 kmh 25.01 in846.9 mb 0.00 in0.0 mm 0.00 in0.0 mm 0.00 in0.0 mm
02:31 PM 81.5°F27.5°C -5537.2°C - 7.0 mph SW11.3 kmh SW 13.4 mph21.6 kmh 25.01 in846.9 mb 0.00 in0.0 mm 0.00 in0.0 mm 0.00 in0.0 mm
02:36 PM 81.7°F27.6°C -5537.2°C - 8.0 mph SW12.9 kmh SW 17.7 mph28.5 kmh 25.01 in846.9 mb 0.00 in0.0 mm 0.00 in0.0 mm 0.00 in0.0 mm
02:41 PM 82.9°F28.3°C -5537.2°C - 11.0 mph SSW17.7 kmh SSW 20.6 mph33.2 kmh 25.01 in846.9 mb 0.00 in0.0 mm 0.00 in0.0 mm 0.00 in0.0 mm
02:46 PM 82.4°F28.0°C -5537.2°C - 11.0 mph SSW17.7 kmh SSW 15.9 mph25.6 kmh 25.01 in846.9 mb 0.00 in0.0 mm 0.00 in0.0 mm 0.00 in0.0 mm
02:51 PM 82.4°F28.0°C -5537.2°C - 11.0 mph SSW17.7 kmh SSW 21.0 mph33.8 kmh 25.01 in846.9 mb 0.00 in0.0 mm 0.00 in0.0 mm 0.00 in0.0 mm
02:56 PM 82.0°F27.8°C -5537.2°C - 14.0 mph S22.5 kmh S 24.2 mph38.9 kmh 25.01 in846.9 mb 0.00 in0.0 mm 0.00 in0.0 mm 0.00 in0.0 mm
03:01 PM 81.1°F27.3°C -5537.2°C - 14.0 mph S22.5 kmh S 21.5 mph34.6 kmh 25.01 in846.9 mb 0.00 in0.0 mm 0.00 in0.0 mm 0.00 in0.0 mm
03:06 PM 80.2°F26.8°C -5537.2°C - 14.0 mph S22.5 kmh S 20.6 mph33.2 kmh 25.01 in846.9 mb 0.00 in0.0 mm 0.00 in0.0 mm 0.00 in0.0 mm
03:11 PM 79.9°F26.6°C -5537.2°C - 15.0 mph S24.1 kmh S 25.3 mph40.7 kmh 25.01 in846.9 mb 0.00 in0.0 mm 0.00 in0.0 mm 0.00 in0.0 mm
03:16 PM 79.3°F26.3°C -5537.2°C - 16.0 mph S25.7 kmh S 22.8 mph36.7 kmh 25.01 in846.9 mb 0.00 in0.0 mm 0.00 in0.0 mm 0.00 in0.0 mm
03:21 PM 79.3°F26.3°C -5537.2°C - 14.0 mph S22.5 kmh S 18.6 mph29.9 kmh 25.01 in846.9 mb 0.00 in0.0 mm 0.00 in0.0 mm 0.00 in0.0 mm
03:26 PM 79.0°F26.1°C -5537.2°C - 13.0 mph S20.9 kmh S 19.0 mph30.6 kmh 25.01 in846.9 mb 0.00 in0.0 mm 0.00 in0.0 mm 0.00 in0.0 mm
03:31 PM 78.1°F25.6°C -5537.2°C - 14.0 mph S22.5 kmh S 19.0 mph30.6 kmh 25.01 in846.9 mb 0.00 in0.0 mm 0.00 in0.0 mm 0.00 in0.0 mm
03:36 PM 77.2°F25.1°C -5537.2°C - 14.0 mph SSW22.5 kmh SSW 20.1 mph32.3 kmh 25.01 in846.9 mb 0.00 in0.0 mm 0.00 in0.0 mm 0.00 in0.0 mm
03:41 PM 77.2°F25.1°C -5537.2°C - 14.0 mph SSW22.5 kmh SSW 19.5 mph31.4 kmh 25.01 in846.9 mb 0.00 in0.0 mm 0.00 in0.0 mm 0.00 in0.0 mm
03:46 PM 76.8°F24.9°C -5537.2°C - 13.0 mph SSW20.9 kmh SSW 19.0 mph30.6 kmh 25.01 in846.9 mb 0.00 in0.0 mm 0.00 in0.0 mm 0.00 in0.0 mm
03:51 PM 77.2°F25.1°C -5537.2°C - 13.0 mph SSW20.9 kmh SSW 16.8 mph27.0 kmh 25.01 in846.9 mb 0.00 in0.0 mm 0.00 in0.0 mm 0.00 in0.0 mm
03:56 PM 77.0°F25.0°C -5537.2°C - 11.0 mph SSW17.7 kmh SSW 15.2 mph24.5 kmh 25.01 in846.9 mb 0.00 in0.0 mm 0.00 in0.0 mm 0.00 in0.0 mm
04:01 PM 76.3°F24.6°C -5537.2°C - 11.0 mph SSW17.7 kmh SSW 16.8 mph27.0 kmh 25.01 in846.9 mb 0.00 in0.0 mm 0.00 in0.0 mm 0.00 in0.0 mm
04:06 PM 76.6°F24.8°C -5537.2°C - 10.0 mph SW16.1 kmh SW 13.0 mph20.9 kmh 25.01 in846.9 mb 0.00 in0.0 mm 0.00 in0.0 mm 0.00 in0.0 mm
04:11 PM 76.5°F24.7°C -5537.2°C - 9.0 mph SW14.5 kmh SW 13.0 mph20.9 kmh 25.01 in846.9 mb 0.00 in0.0 mm 0.00 in0.0 mm 0.00 in0.0 mm
04:16 PM 76.3°F24.6°C -5537.2°C - 10.0 mph WSW16.1 kmh WSW 14.3 mph23.0 kmh 25.01 in846.9 mb 0.00 in0.0 mm 0.00 in0.0 mm 0.00 in0.0 mm
04:21 PM 76.3°F24.6°C -5537.2°C - 9.0 mph WSW14.5 kmh WSW 11.6 mph18.7 kmh 25.01 in846.9 mb 0.00 in0.0 mm 0.00 in0.0 mm 0.00 in0.0 mm
04:26 PM 75.6°F24.2°C -5537.2°C - 7.0 mph WNW11.3 kmh WNW 12.1 mph19.5 kmh 25.01 in846.9 mb 0.00 in0.0 mm 0.00 in0.0 mm 0.00 in0.0 mm
04:31 PM 75.4°F24.1°C -5537.2°C - 6.0 mph WNW9.7 kmh WNW 10.1 mph16.3 kmh 25.01 in846.9 mb 0.00 in0.0 mm 0.00 in0.0 mm 0.00 in0.0 mm
04:36 PM 75.6°F24.2°C -5537.2°C - 5.0 mph WNW8.0 kmh WNW 10.1 mph16.3 kmh 25.01 in846.9 mb 0.00 in0.0 mm 0.00 in0.0 mm 0.00 in0.0 mm
04:41 PM 75.7°F24.3°C -5537.2°C - 5.0 mph NNW8.0 kmh NNW 11.6 mph18.7 kmh 25.01 in846.9 mb 0.00 in0.0 mm 0.00 in0.0 mm 0.00 in0.0 mm
04:46 PM 75.2°F24.0°C -5537.2°C - 7.0 mph NNW11.3 kmh NNW 12.5 mph20.1 kmh 25.01 in846.9 mb 0.00 in0.0 mm 0.00 in0.0 mm 0.00 in0.0 mm
04:51 PM 75.9°F24.4°C -5537.2°C - 6.0 mph NW9.7 kmh NW 10.5 mph16.9 kmh 25.01 in846.9 mb 0.00 in0.0 mm 0.00 in0.0 mm 0.00 in0.0 mm
04:56 PM 75.9°F24.4°C -5537.2°C - 5.0 mph NW8.0 kmh NW 10.1 mph16.3 kmh 25.01 in846.9 mb 0.00 in0.0 mm 0.00 in0.0 mm 0.00 in0.0 mm
05:01 PM 76.1°F24.5°C -5537.2°C - 8.0 mph WSW12.9 kmh WSW 13.9 mph22.4 kmh 25.01 in846.9 mb 0.00 in0.0 mm 0.00 in0.0 mm 0.00 in0.0 mm
05:06 PM 75.7°F24.3°C -5537.2°C - 7.0 mph WSW11.3 kmh WSW 10.1 mph16.3 kmh 25.01 in846.9 mb 0.00 in0.0 mm 0.00 in0.0 mm 0.00 in0.0 mm
05:11 PM 76.1°F24.5°C -5537.2°C - 6.0 mph WSW9.7 kmh WSW 8.7 mph14.0 kmh 25.01 in846.9 mb 0.00 in0.0 mm 0.00 in0.0 mm 0.00 in0.0 mm
05:16 PM 76.3°F24.6°C -5537.2°C - 6.0 mph WSW9.7 kmh WSW 9.6 mph15.4 kmh 25.01 in846.9 mb 0.00 in0.0 mm 0.00 in0.0 mm 0.00 in0.0 mm
05:21 PM 76.5°F24.7°C -5537.2°C - 4.0 mph NW6.4 kmh NW 6.9 mph11.1 kmh 25.01 in846.9 mb 0.00 in0.0 mm 0.00 in0.0 mm 0.00 in0.0 mm
05:26 PM 77.0°F25.0°C -5537.2°C - 4.0 mph NW6.4 kmh NW 6.3 mph10.1 kmh 25.01 in846.9 mb 0.00 in0.0 mm 0.00 in0.0 mm 0.00 in0.0 mm
05:31 PM 77.7°F25.4°C -5537.2°C - 3.0 mph NW4.8 kmh NW 5.8 mph9.3 kmh 25.01 in846.9 mb 0.00 in0.0 mm 0.00 in0.0 mm 0.00 in0.0 mm
05:36 PM 77.9°F25.5°C -5537.2°C - 3.0 mph WNW4.8 kmh WNW 5.8 mph9.3 kmh 25.01 in846.9 mb 0.00 in0.0 mm 0.00 in0.0 mm 0.00 in0.0 mm
05:41 PM 77.9°F25.5°C -5537.2°C - 3.0 mph NW4.8 kmh NW 6.9 mph11.1 kmh 25.01 in846.9 mb 0.00 in0.0 mm 0.00 in0.0 mm 0.00 in0.0 mm
05:46 PM 77.0°F25.0°C -5537.2°C - 5.0 mph WNW8.0 kmh WNW 10.1 mph16.3 kmh 25.01 in846.9 mb 0.00 in0.0 mm 0.00 in0.0 mm 0.00 in0.0 mm
05:51 PM 77.0°F25.0°C -5537.2°C - 5.0 mph WNW8.0 kmh WNW 6.9 mph11.1 kmh 25.01 in846.9 mb 0.00 in0.0 mm 0.00 in0.0 mm 0.00 in0.0 mm
05:56 PM 77.0°F25.0°C -5537.2°C - 3.0 mph NW4.8 kmh NW 4.5 mph7.2 kmh 25.01 in846.9 mb 0.00 in0.0 mm 0.00 in0.0 mm 0.00 in0.0 mm
06:01 PM 76.8°F24.9°C -5537.2°C - 4.0 mph N6.4 kmh N 8.3 mph13.4 kmh 25.01 in846.9 mb 0.00 in0.0 mm 0.00 in0.0 mm 0.00 in0.0 mm
06:06 PM 76.8°F24.9°C -5537.2°C - 5.0 mph N8.0 kmh N 10.5 mph16.9 kmh 25.01 in846.9 mb 0.00 in0.0 mm 0.00 in0.0 mm 0.00 in0.0 mm
06:11 PM 76.5°F24.7°C -5537.2°C - 6.0 mph NNE9.7 kmh NNE 11.0 mph17.7 kmh 25.01 in846.9 mb 0.00 in0.0 mm 0.00 in0.0 mm 0.00 in0.0 mm
06:16 PM 76.6°F24.8°C -5537.2°C - 6.0 mph NE9.7 kmh NE 9.6 mph15.4 kmh 25.01 in846.9 mb 0.00 in0.0 mm 0.00 in0.0 mm 0.00 in0.0 mm
06:21 PM 76.3°F24.6°C -5537.2°C - 5.0 mph NE8.0 kmh NE 8.7 mph14.0 kmh 25.01 in846.9 mb 0.00 in0.0 mm 0.00 in0.0 mm 0.00 in0.0 mm
06:26 PM 76.6°F24.8°C -5537.2°C - 5.0 mph NE8.0 kmh NE 8.7 mph14.0 kmh 25.01 in846.9 mb 0.00 in0.0 mm 0.00 in0.0 mm 0.00 in0.0 mm
06:31 PM 76.5°F24.7°C -5537.2°C - 4.0 mph NE6.4 kmh NE 8.7 mph14.0 kmh 24.98 in845.9 mb 0.00 in0.0 mm 0.00 in0.0 mm 0.00 in0.0 mm
06:36 PM 76.3°F24.6°C -5537.2°C - 4.0 mph NE6.4 kmh NE 7.8 mph12.6 kmh 24.98 in845.9 mb 0.00 in0.0 mm 0.00 in0.0 mm 0.00 in0.0 mm
06:41 PM 76.3°F24.6°C -5537.2°C - 4.0 mph NE6.4 kmh NE 7.8 mph12.6 kmh 24.98 in845.9 mb 0.00 in0.0 mm 0.00 in0.0 mm 0.00 in0.0 mm
06:46 PM 76.1°F24.5°C -5537.2°C - 5.0 mph NNE8.0 kmh NNE 9.6 mph15.4 kmh 24.98 in845.9 mb 0.00 in0.0 mm 0.00 in0.0 mm 0.00 in0.0 mm
06:51 PM 75.9°F24.4°C -5537.2°C - 5.0 mph NNE8.0 kmh NNE 6.7 mph10.8 kmh 24.98 in845.9 mb 0.00 in0.0 mm 0.00 in0.0 mm 0.00 in0.0 mm
06:56 PM 75.7°F24.3°C -5537.2°C - 4.0 mph NE6.4 kmh NE 6.7 mph10.8 kmh 24.98 in845.9 mb 0.00 in0.0 mm 0.00 in0.0 mm 0.00 in0.0 mm
07:01 PM 75.7°F24.3°C -5537.2°C - 4.0 mph NNE6.4 kmh NNE 5.8 mph9.3 kmh 24.98 in845.9 mb 0.00 in0.0 mm 0.00 in0.0 mm 0.00 in0.0 mm
07:06 PM 75.9°F24.4°C -5537.2°C - 2.0 mph N3.2 kmh N 4.5 mph7.2 kmh 24.98 in845.9 mb 0.00 in0.0 mm 0.00 in0.0 mm 0.00 in0.0 mm
07:11 PM 75.9°F24.4°C -5537.2°C - 2.0 mph NNE3.2 kmh NNE 5.4 mph8.7 kmh 24.98 in845.9 mb 0.00 in0.0 mm 0.00 in0.0 mm 0.00 in0.0 mm
07:16 PM 76.1°F24.5°C -5537.2°C - 4.0 mph ENE6.4 kmh ENE 4.9 mph7.9 kmh 24.98 in845.9 mb 0.00 in0.0 mm 0.00 in0.0 mm 0.00 in0.0 mm
07:21 PM 76.3°F24.6°C -5537.2°C - 3.0 mph E4.8 kmh E 5.4 mph8.7 kmh 24.98 in845.9 mb 0.00 in0.0 mm 0.00 in0.0 mm 0.00 in0.0 mm
07:26 PM 76.3°F24.6°C -5537.2°C - 3.0 mph ENE4.8 kmh ENE 6.7 mph10.8 kmh 24.98 in845.9 mb 0.00 in0.0 mm 0.00 in0.0 mm 0.00 in0.0 mm
07:31 PM 76.3°F24.6°C -5537.2°C - 3.0 mph ENE4.8 kmh ENE 5.8 mph9.3 kmh 24.98 in845.9 mb 0.00 in0.0 mm 0.00 in0.0 mm 0.00 in0.0 mm
07:36 PM 76.3°F24.6°C -5537.2°C - 3.0 mph NE4.8 kmh NE 6.7 mph10.8 kmh 24.98 in845.9 mb 0.00 in0.0 mm 0.00 in0.0 mm 0.00 in0.0 mm
07:41 PM 76.1°F24.5°C -5537.2°C - 4.0 mph NE6.4 kmh NE 6.3 mph10.1 kmh 24.98 in845.9 mb 0.00 in0.0 mm 0.00 in0.0 mm 0.00 in0.0 mm
07:46 PM 75.9°F24.4°C -5537.2°C - 4.0 mph NE6.4 kmh NE 6.3 mph10.1 kmh 24.98 in845.9 mb 0.00 in0.0 mm 0.00 in0.0 mm 0.00 in0.0 mm
07:51 PM 75.9°F24.4°C -5537.2°C - 4.0 mph NE6.4 kmh NE 6.3 mph10.1 kmh 24.98 in845.9 mb 0.00 in0.0 mm 0.00 in0.0 mm 0.00 in0.0 mm
07:56 PM 75.9°F24.4°C -5537.2°C - 3.0 mph NE4.8 kmh NE 4.9 mph7.9 kmh 24.98 in845.9 mb 0.00 in0.0 mm 0.00 in0.0 mm 0.00 in0.0 mm
08:01 PM 75.6°F24.2°C -5537.2°C - 2.0 mph NE3.2 kmh NE 4.5 mph7.2 kmh 24.98 in845.9 mb 0.00 in0.0 mm 0.00 in0.0 mm 0.00 in0.0 mm
08:06 PM 75.2°F24.0°C -5537.2°C - 2.0 mph NE3.2 kmh NE 3.6 mph5.8 kmh 24.98 in845.9 mb 0.00 in0.0 mm 0.00 in0.0 mm 0.00 in0.0 mm
08:11 PM 74.7°F23.7°C -5537.2°C - 2.0 mph NE3.2 kmh NE 4.9 mph7.9 kmh 24.98 in845.9 mb 0.00 in0.0 mm 0.00 in0.0 mm 0.00 in0.0 mm
08:16 PM 74.1°F23.4°C -5537.2°C - 2.0 mph NE3.2 kmh NE 4.5 mph7.2 kmh 24.98 in845.9 mb 0.00 in0.0 mm 0.00 in0.0 mm 0.00 in0.0 mm
08:21 PM 73.6°F23.1°C -5537.2°C - 2.0 mph NE3.2 kmh NE 4.0 mph6.4 kmh 24.98 in845.9 mb 0.00 in0.0 mm 0.00 in0.0 mm 0.00 in0.0 mm
08:26 PM 72.9°F22.7°C -5537.2°C - 1.0 mph NE1.6 kmh NE 4.0 mph6.4 kmh 24.98 in845.9 mb 0.00 in0.0 mm 0.00 in0.0 mm 0.00 in0.0 mm
08:31 PM 72.1°F22.3°C -5537.2°C - 1.0 mph NE1.6 kmh NE 4.5 mph7.2 kmh 24.98 in845.9 mb 0.00 in0.0 mm 0.00 in0.0 mm 0.00 in0.0 mm
08:36 PM 71.8°F22.1°C -5537.2°C - 3.0 mph NE4.8 kmh NE 4.0 mph6.4 kmh 24.98 in845.9 mb 0.00 in0.0 mm 0.00 in0.0 mm 0.00 in0.0 mm
08:41 PM 71.4°F21.9°C -5537.2°C - 3.0 mph NE4.8 kmh NE 4.0 mph6.4 kmh 24.98 in845.9 mb 0.00 in0.0 mm 0.00 in0.0 mm 0.00 in0.0 mm
08:46 PM 72.3°F22.4°C -5537.2°C - 4.0 mph NNE6.4 kmh NNE 8.3 mph13.4 kmh 24.98 in845.9 mb 0.00 in0.0 mm 0.00 in0.0 mm 0.00 in0.0 mm
08:51 PM 72.3°F22.4°C -5537.2°C - 4.0 mph N6.4 kmh N 5.8 mph9.3 kmh 24.98 in845.9 mb 0.00 in0.0 mm 0.00 in0.0 mm 0.00 in0.0 mm
08:56 PM 72.1°F22.3°C -5537.2°C - 4.0 mph N6.4 kmh N 5.4 mph8.7 kmh 24.98 in845.9 mb 0.00 in0.0 mm 0.00 in0.0 mm 0.00 in0.0 mm
09:01 PM 71.4°F21.9°C -5537.2°C - 4.0 mph NNW6.4 kmh NNW 5.4 mph8.7 kmh 24.98 in845.9 mb 0.00 in0.0 mm 0.00 in0.0 mm 0.00 in0.0 mm
09:06 PM 71.1°F21.7°C -5537.2°C - 4.0 mph NW6.4 kmh NW 5.8 mph9.3 kmh 24.98 in845.9 mb 0.00 in0.0 mm 0.00 in0.0 mm 0.00 in0.0 mm
09:11 PM 70.7°F21.5°C -5537.2°C - 3.0 mph NW4.8 kmh NW 3.6 mph5.8 kmh 24.98 in845.9 mb 0.00 in0.0 mm 0.00 in0.0 mm 0.00 in0.0 mm
09:16 PM 70.0°F21.1°C -5537.2°C - 2.0 mph NW3.2 kmh NW 3.6 mph5.8 kmh 25.01 in846.9 mb 0.00 in0.0 mm 0.00 in0.0 mm 0.00 in0.0 mm
09:21 PM 69.6°F20.9°C -5537.2°C - 1.0 mph NW1.6 kmh NW 4.0 mph6.4 kmh 25.01 in846.9 mb 0.00 in0.0 mm 0.00 in0.0 mm 0.00 in0.0 mm
09:26 PM 69.1°F20.6°C -5537.2°C - 1.0 mph NW1.6 kmh NW 3.6 mph5.8 kmh 25.01 in846.9 mb 0.00 in0.0 mm 0.00 in0.0 mm 0.00 in0.0 mm
09:31 PM 68.7°F20.4°C -5537.2°C - Calm Calm -- 25.01 in846.9 mb 0.00 in0.0 mm 0.00 in0.0 mm 0.00 in0.0 mm
09:36 PM 68.4°F20.2°C -5537.2°C - Calm Calm -- 25.01 in846.9 mb 0.00 in0.0 mm 0.00 in0.0 mm 0.00 in0.0 mm
09:41 PM 68.2°F20.1°C -5537.2°C - Calm Calm -- 25.01 in846.9 mb 0.00 in0.0 mm 0.00 in0.0 mm 0.00 in0.0 mm
09:46 PM 67.6°F19.8°C -5537.2°C - Calm Calm 4.0 mph6.4 kmh 25.01 in846.9 mb 0.00 in0.0 mm 0.00 in0.0 mm 0.00 in0.0 mm
09:51 PM 67.1°F19.5°C -5537.2°C - 2.0 mph NNW3.2 kmh NNW 4.9 mph7.9 kmh 25.01 in846.9 mb 0.00 in0.0 mm 0.00 in0.0 mm 0.00 in0.0 mm
09:56 PM 66.2°F19.0°C -5537.2°C - 2.0 mph NNE3.2 kmh NNE 3.6 mph5.8 kmh 25.01 in846.9 mb 0.00 in0.0 mm 0.00 in0.0 mm 0.00 in0.0 mm
10:01 PM 66.7°F19.3°C -5537.2°C - 1.0 mph NNE1.6 kmh NNE 5.4 mph8.7 kmh 25.01 in846.9 mb 0.00 in0.0 mm 0.00 in0.0 mm 0.00 in0.0 mm
10:06 PM 66.9°F19.4°C -5537.2°C - 3.0 mph NNE4.8 kmh NNE 5.4 mph8.7 kmh 25.01 in846.9 mb 0.00 in0.0 mm 0.00 in0.0 mm 0.00 in0.0 mm
10:11 PM 66.7°F19.3°C -5537.2°C - 4.0 mph N6.4 kmh N 7.8 mph12.6 kmh 25.01 in846.9 mb 0.00 in0.0 mm 0.00 in0.0 mm 0.00 in0.0 mm
10:16 PM 67.5°F19.7°C -5537.2°C - 4.0 mph NW6.4 kmh NW 6.7 mph10.8 kmh 25.01 in846.9 mb 0.00 in0.0 mm 0.00 in0.0 mm 0.00 in0.0 mm
10:21 PM 67.1°F19.5°C -5537.2°C - 4.0 mph WNW6.4 kmh WNW 7.4 mph11.9 kmh 25.01 in846.9 mb 0.00 in0.0 mm 0.00 in0.0 mm 0.00 in0.0 mm
10:26 PM 67.5°F19.7°C -5537.2°C - 5.0 mph NW8.0 kmh NW 7.8 mph12.6 kmh 25.01 in846.9 mb 0.00 in0.0 mm 0.00 in0.0 mm 0.00 in0.0 mm
10:31 PM 66.4°F19.1°C -5537.2°C - 5.0 mph N8.0 kmh N 7.4 mph11.9 kmh 25.01 in846.9 mb 0.00 in0.0 mm 0.00 in0.0 mm 0.00 in0.0 mm
10:36 PM 66.2°F19.0°C -5537.2°C - 4.0 mph NE6.4 kmh NE 5.8 mph9.3 kmh 25.01 in846.9 mb 0.00 in0.0 mm 0.00 in0.0 mm 0.00 in0.0 mm
10:41 PM 65.5°F18.6°C -5537.2°C - 3.0 mph NE4.8 kmh NE 4.5 mph7.2 kmh 25.01 in846.9 mb 0.00 in0.0 mm 0.00 in0.0 mm 0.00 in0.0 mm
10:46 PM 65.3°F18.5°C -5537.2°C - 2.0 mph NE3.2 kmh NE 3.6 mph5.8 kmh 25.04 in848.0 mb 0.00 in0.0 mm 0.00 in0.0 mm 0.00 in0.0 mm
10:51 PM 64.8°F18.2°C -5537.2°C - 3.0 mph NE4.8 kmh NE 7.4 mph11.9 kmh 25.04 in848.0 mb 0.00 in0.0 mm 0.00 in0.0 mm 0.00 in0.0 mm
10:56 PM 63.9°F17.7°C -5537.2°C - 4.0 mph NNE6.4 kmh NNE 7.8 mph12.6 kmh 25.04 in848.0 mb 0.00 in0.0 mm 0.00 in0.0 mm 0.00 in0.0 mm
11:01 PM 64.2°F17.9°C -5537.2°C - 2.0 mph NNE3.2 kmh NNE 4.0 mph6.4 kmh 25.04 in848.0 mb 0.00 in0.0 mm 0.00 in0.0 mm 0.00 in0.0 mm
11:06 PM 64.8°F18.2°C -5537.2°C - 1.0 mph NE1.6 kmh NE 4.0 mph6.4 kmh 25.04 in848.0 mb 0.00 in0.0 mm 0.00 in0.0 mm 0.00 in0.0 mm
11:11 PM 64.8°F18.2°C -5537.2°C - Calm Calm -- 25.04 in848.0 mb 0.00 in0.0 mm 0.00 in0.0 mm 0.00 in0.0 mm
11:16 PM 64.2°F17.9°C -5537.2°C - Calm Calm 3.1 mph5.0 kmh 25.01 in846.9 mb 0.00 in0.0 mm 0.00 in0.0 mm 0.00 in0.0 mm
11:21 PM 64.6°F18.1°C -5537.2°C - Calm Calm -- 25.01 in846.9 mb 0.00 in0.0 mm 0.00 in0.0 mm 0.00 in0.0 mm
11:26 PM 65.1°F18.4°C -5537.2°C - 1.0 mph NNE1.6 kmh NNE 5.4 mph8.7 kmh 25.01 in846.9 mb 0.00 in0.0 mm 0.00 in0.0 mm 0.00 in0.0 mm
11:31 PM 65.7°F18.7°C -5537.2°C - 3.0 mph N4.8 kmh N 6.3 mph10.1 kmh 25.01 in846.9 mb 0.00 in0.0 mm 0.00 in0.0 mm 0.00 in0.0 mm
11:36 PM 65.3°F18.5°C -5537.2°C - 4.0 mph NW6.4 kmh NW 5.4 mph8.7 kmh 25.01 in846.9 mb 0.00 in0.0 mm 0.00 in0.0 mm 0.00 in0.0 mm
11:41 PM 65.1°F18.4°C -5537.2°C - 4.0 mph NW6.4 kmh NW 6.3 mph10.1 kmh 25.01 in846.9 mb 0.00 in0.0 mm 0.00 in0.0 mm 0.00 in0.0 mm
11:46 PM 65.1°F18.4°C -5537.2°C - 4.0 mph NW6.4 kmh NW 6.7 mph10.8 kmh 25.01 in846.9 mb 0.00 in0.0 mm 0.00 in0.0 mm 0.00 in0.0 mm
11:51 PM 66.2°F19.0°C -5537.2°C - 5.0 mph NW8.0 kmh NW 7.8 mph12.6 kmh 25.01 in846.9 mb 0.00 in0.0 mm 0.00 in0.0 mm 0.00 in0.0 mm
11:56 PM 66.4°F19.1°C -5537.2°C - 5.0 mph NNW8.0 kmh NNW 8.3 mph13.4 kmh 25.01 in846.9 mb 0.00 in0.0 mm 0.00 in0.0 mm 0.00 in0.0 mm